createdAt,value
2022-12-23T00:00:02.415Z,59.00
2022-12-23T00:01:02.406Z,58.40
2022-12-23T00:02:02.538Z,61.80
2022-12-23T00:03:02.532Z,58.20
2022-12-23T00:04:02.457Z,55.30
2022-12-23T00:05:02.370Z,55.70
2022-12-23T00:06:02.353Z,55.00
2022-12-23T00:07:02.341Z,53.00
2022-12-23T00:08:02.335Z,54.20
2022-12-23T00:09:02.319Z,55.30
2022-12-23T00:10:02.314Z,55.70
2022-12-23T00:11:02.306Z,52.50
2022-12-23T00:12:02.302Z,54.00
2022-12-23T00:13:02.288Z,53.40
2022-12-23T00:14:02.270Z,54.70
2022-12-23T00:15:02.323Z,52.60
2022-12-23T00:16:02.274Z,54.50
2022-12-23T00:17:02.526Z,57.70
2022-12-23T00:18:02.229Z,53.30
2022-12-23T00:19:02.237Z,50.10
2022-12-23T00:20:02.208Z,52.60
2022-12-23T00:21:08.331Z,51.20
2022-12-23T00:22:02.188Z,51.40
2022-12-23T00:23:02.176Z,51.30
2022-12-23T00:24:02.167Z,50.50
2022-12-23T00:25:02.209Z,52.30
2022-12-23T00:26:02.148Z,50.20
2022-12-23T00:27:02.159Z,54.90
2022-12-23T00:28:02.137Z,55.80
2022-12-23T00:29:02.129Z,53.10
2022-12-23T00:30:02.105Z,54.00
2022-12-23T00:31:02.100Z,53.40
2022-12-23T00:32:02.130Z,52.90
2022-12-23T00:33:02.098Z,50.50
2022-12-23T00:34:02.075Z,51.20
2022-12-23T00:35:02.060Z,53.90
2022-12-23T00:36:02.151Z,56.10
2022-12-23T00:37:02.037Z,54.80
2022-12-23T00:38:02.028Z,55.50
2022-12-23T00:39:02.014Z,49.80
2022-12-23T00:40:06.602Z,47.30
2022-12-23T00:41:01.998Z,47.90
2022-12-23T00:42:02.068Z,46.90
2022-12-23T00:43:01.980Z,50.00
2022-12-23T00:44:01.965Z,52.10
2022-12-23T00:45:01.966Z,57.10
2022-12-23T00:46:01.996Z,57.10
2022-12-23T00:47:01.957Z,55.80
2022-12-23T00:48:01.934Z,66.30
2022-12-23T00:49:01.913Z,70.10
2022-12-23T00:50:01.904Z,70.80
2022-12-23T00:51:01.896Z,70.20
2022-12-23T00:52:01.887Z,66.10
2022-12-23T00:53:01.875Z,67.10
2022-12-23T00:54:01.870Z,66.70
2022-12-23T00:55:01.862Z,65.90
2022-12-23T00:56:01.846Z,69.90
2022-12-23T00:57:01.862Z,73.00
2022-12-23T00:58:01.824Z,71.80
2022-12-23T00:59:01.816Z,75.30
2022-12-23T01:00:01.813Z,77.20
2022-12-23T01:01:01.841Z,72.60
2022-12-23T01:02:02.026Z,75.10
2022-12-23T01:03:01.879Z,79.60
2022-12-23T01:04:01.767Z,84.40
2022-12-23T01:05:01.758Z,74.60
2022-12-23T01:06:01.746Z,76.40
2022-12-23T01:07:01.735Z,80.10
2022-12-23T01:08:01.726Z,75.40
2022-12-23T01:09:01.716Z,77.30
2022-12-23T01:10:01.729Z,82.80
2022-12-23T01:11:01.694Z,84.30
2022-12-23T01:12:01.706Z,84.10
2022-12-23T01:13:01.675Z,77.60
2022-12-23T01:14:01.665Z,73.80
2022-12-23T01:15:01.669Z,68.90
2022-12-23T01:16:01.647Z,69.10
2022-12-23T01:17:01.696Z,69.80
2022-12-23T01:18:01.624Z,70.20
2022-12-23T01:19:01.615Z,71.20
2022-12-23T01:20:01.662Z,75.10
2022-12-23T01:21:01.600Z,76.00
2022-12-23T01:22:01.815Z,76.60
2022-12-23T01:23:01.576Z,73.80
2022-12-23T01:24:01.564Z,74.00
2022-12-23T01:25:01.557Z,72.50
2022-12-23T01:26:01.543Z,70.60
2022-12-23T01:27:01.545Z,69.30
2022-12-23T01:28:01.523Z,64.60
2022-12-23T01:29:01.515Z,70.70
2022-12-23T01:30:01.512Z,63.90
2022-12-23T01:31:01.514Z,66.20
2022-12-23T01:32:01.628Z,71.80
2022-12-23T01:33:01.475Z,70.50
2022-12-23T01:34:01.465Z,67.40
2022-12-23T01:35:01.456Z,70.30
2022-12-23T01:36:01.450Z,65.50
2022-12-23T01:37:01.437Z,58.40
2022-12-23T01:38:01.422Z,56.20
2022-12-23T01:39:01.414Z,50.00
2022-12-23T01:40:01.404Z,47.20
2022-12-23T01:41:01.399Z,43.70
2022-12-23T01:42:01.402Z,44.60
2022-12-23T01:43:01.378Z,47.10
2022-12-23T01:44:01.368Z,51.20
2022-12-23T01:45:01.364Z,53.70
2022-12-23T01:46:01.383Z,57.30
2022-12-23T01:47:01.337Z,57.40
2022-12-23T01:48:01.331Z,60.10
2022-12-23T01:49:01.319Z,57.40
2022-12-23T01:50:01.323Z,56.50
2022-12-23T01:51:01.319Z,60.80
2022-12-23T01:52:01.289Z,56.30
2022-12-23T01:53:06.869Z,52.40
2022-12-23T01:54:01.304Z,52.80
2022-12-23T01:55:01.255Z,49.00
2022-12-23T01:56:01.253Z,45.60
2022-12-23T01:57:01.236Z,48.90
2022-12-23T01:58:01.228Z,46.70
2022-12-23T01:59:01.217Z,44.70
2022-12-23T02:00:01.219Z,45.00
2022-12-23T02:01:01.353Z,49.90
2022-12-23T02:02:01.384Z,52.70
2022-12-23T02:03:01.343Z,57.80
2022-12-23T02:04:01.171Z,54.80
2022-12-23T02:05:01.181Z,56.10
2022-12-23T02:06:01.149Z,59.20
2022-12-23T02:07:01.143Z,63.70
2022-12-23T02:08:01.136Z,63.00
2022-12-23T02:09:01.119Z,64.10
2022-12-23T02:10:01.114Z,61.40
2022-12-23T02:11:01.099Z,66.50
2022-12-23T02:12:01.093Z,67.60
2022-12-23T02:13:01.093Z,65.30
2022-12-23T02:14:01.069Z,65.00
2022-12-23T02:15:01.060Z,62.20
2022-12-23T02:16:01.048Z,67.30
2022-12-23T02:17:01.131Z,60.90
2022-12-23T02:18:01.037Z,66.80
2022-12-23T02:19:01.028Z,66.90
2022-12-23T02:20:01.020Z,70.10
2022-12-23T02:21:00.999Z,66.40
2022-12-23T02:22:00.998Z,65.80
2022-12-23T02:23:00.977Z,61.50
2022-12-23T02:24:00.980Z,65.00
2022-12-23T02:25:00.964Z,67.90
2022-12-23T02:26:00.954Z,66.70
2022-12-23T02:27:00.942Z,66.50
2022-12-23T02:28:00.935Z,68.60
2022-12-23T02:29:00.930Z,67.00
2022-12-23T02:30:00.918Z,67.80
2022-12-23T02:31:00.926Z,68.00
2022-12-23T02:32:00.892Z,68.20
2022-12-23T02:33:00.887Z,64.50
2022-12-23T02:34:00.877Z,74.10
2022-12-23T02:35:00.868Z,73.10
2022-12-23T02:36:00.854Z,75.30
2022-12-23T02:37:00.843Z,75.80
2022-12-23T02:38:00.837Z,76.80
2022-12-23T02:39:00.825Z,77.50
2022-12-23T02:40:00.815Z,78.00
2022-12-23T02:41:00.805Z,78.30
2022-12-23T02:42:00.801Z,78.80
2022-12-23T02:43:00.794Z,83.20
2022-12-23T02:44:00.777Z,84.30
2022-12-23T02:45:00.762Z,83.10
2022-12-23T02:46:00.819Z,75.50
2022-12-23T02:47:00.751Z,78.20
2022-12-23T02:48:00.748Z,77.80
2022-12-23T02:49:00.726Z,76.30
2022-12-23T02:50:00.736Z,73.30
2022-12-23T02:51:00.704Z,77.60
2022-12-23T02:52:00.696Z,76.60
2022-12-23T02:53:00.683Z,80.40
2022-12-23T02:54:00.685Z,78.20
2022-12-23T02:55:00.671Z,80.10
2022-12-23T02:56:00.663Z,82.10
2022-12-23T02:57:00.652Z,81.50
2022-12-23T02:58:00.649Z,80.00
2022-12-23T02:59:00.629Z,83.40
2022-12-23T03:00:00.615Z,76.70
2022-12-23T03:01:00.633Z,85.50
2022-12-23T03:02:00.756Z,85.40
2022-12-23T03:03:00.843Z,88.40
2022-12-23T03:04:00.694Z,86.70
2022-12-23T03:05:01.255Z,91.70
2022-12-23T03:06:00.559Z,90.50
2022-12-23T03:07:04.468Z,88.40
2022-12-23T03:08:00.538Z,97.00
2022-12-23T03:09:00.527Z,92.70
2022-12-23T03:10:00.524Z,94.20
2022-12-23T03:11:00.514Z,96.40
2022-12-23T03:12:00.498Z,96.90
2022-12-23T03:13:00.530Z,103.20
2022-12-23T03:14:00.477Z,104.30
2022-12-23T03:15:00.476Z,108.40
2022-12-23T03:16:00.501Z,99.30
2022-12-23T03:17:00.453Z,104.20
2022-12-23T03:18:00.439Z,105.30
2022-12-23T03:19:00.425Z,96.30
2022-12-23T03:20:00.424Z,90.30
2022-12-23T03:21:00.409Z,86.60
2022-12-23T03:22:00.399Z,85.00
2022-12-23T03:23:00.405Z,101.70
2022-12-23T03:24:00.378Z,98.40
2022-12-23T03:25:00.371Z,104.70
2022-12-23T03:26:00.367Z,98.80
2022-12-23T03:27:00.352Z,105.10
2022-12-23T03:28:00.343Z,102.40
2022-12-23T03:29:00.324Z,107.90
2022-12-23T03:30:00.319Z,113.80
2022-12-23T03:31:00.319Z,115.10
2022-12-23T03:32:00.304Z,113.20
2022-12-23T03:33:00.299Z,116.80
2022-12-23T03:34:00.288Z,115.70
2022-12-23T03:35:00.273Z,106.90
2022-12-23T03:36:00.266Z,109.20
2022-12-23T03:37:00.251Z,98.40
2022-12-23T03:38:00.241Z,97.30
2022-12-23T03:39:00.235Z,106.30
2022-12-23T03:40:00.224Z,113.80
2022-12-23T03:41:00.217Z,119.20
2022-12-23T03:42:00.211Z,115.90
2022-12-23T03:43:00.187Z,112.70
2022-12-23T03:44:00.181Z,115.10
2022-12-23T03:46:00.213Z,104.60
2022-12-23T03:47:00.151Z,106.30
2022-12-23T03:48:00.149Z,102.30
2022-12-23T03:49:00.134Z,99.20
2022-12-23T03:50:00.198Z,97.50
2022-12-23T03:51:00.144Z,97.90
2022-12-23T03:52:00.164Z,97.20
2022-12-23T03:53:00.115Z,98.70
2022-12-23T03:54:00.088Z,103.80
2022-12-23T03:55:00.095Z,94.50
2022-12-23T03:56:00.082Z,100.70
2022-12-23T03:57:00.065Z,108.10
2022-12-23T03:58:00.083Z,134.70
2022-12-23T03:59:00.061Z,133.40
2022-12-23T04:00:00.079Z,141.40
2022-12-23T04:01:00.018Z,140.60
2022-12-23T04:02:00.067Z,149.00
2022-12-23T04:03:00.242Z,158.40
2022-12-23T04:04:00.024Z,167.20
2022-12-23T04:05:00.076Z,157.40
2022-12-23T04:05:59.970Z,152.40
2022-12-23T04:06:59.958Z,159.70
2022-12-23T04:07:59.949Z,170.10
2022-12-23T04:08:59.941Z,164.10
2022-12-23T04:09:59.948Z,151.00
2022-12-23T04:10:59.919Z,133.00
2022-12-23T04:11:59.912Z,112.50
2022-12-23T04:12:59.897Z,128.70
2022-12-23T04:13:59.890Z,124.30
2022-12-23T04:14:59.882Z,170.80
2022-12-23T04:15:59.921Z,162.70
2022-12-23T04:16:59.864Z,145.90
2022-12-23T04:17:59.868Z,132.50
2022-12-23T04:18:59.838Z,148.30
2022-12-23T04:19:59.831Z,141.50
2022-12-23T04:20:59.827Z,171.80
2022-12-23T04:21:59.810Z,177.60
2022-12-23T04:22:59.798Z,180.90
2022-12-23T04:23:59.792Z,166.20
2022-12-23T04:24:59.780Z,131.90
2022-12-23T04:25:59.777Z,130.50
2022-12-23T04:26:59.761Z,148.30
2022-12-23T04:27:59.746Z,139.70
2022-12-23T04:28:59.745Z,126.60
2022-12-23T04:29:59.740Z,136.00
2022-12-23T04:30:59.764Z,137.10
2022-12-23T04:31:59.809Z,118.80
2022-12-23T04:32:59.712Z,125.90
2022-12-23T04:33:59.700Z,158.40
2022-12-23T04:34:59.695Z,154.50
2022-12-23T04:35:59.673Z,153.30
2022-12-23T04:36:59.662Z,182.10
2022-12-23T04:37:59.658Z,188.50
2022-12-23T04:38:59.645Z,188.60
2022-12-23T04:39:59.639Z,191.10
2022-12-23T04:40:59.628Z,172.90
2022-12-23T04:41:59.628Z,164.00
2022-12-23T04:42:59.611Z,161.10
2022-12-23T04:43:59.594Z,152.90
2022-12-23T04:44:59.585Z,160.00
2022-12-23T04:45:59.586Z,145.40
2022-12-23T04:46:59.601Z,154.10
2022-12-23T04:47:59.562Z,134.10
2022-12-23T04:48:59.544Z,143.40
2022-12-23T04:49:59.529Z,156.40
2022-12-23T04:50:59.539Z,196.30
2022-12-23T04:51:59.515Z,284.10
2022-12-23T04:52:59.502Z,232.30
2022-12-23T04:53:59.492Z,240.60
2022-12-23T04:54:59.515Z,208.00
2022-12-23T04:55:59.475Z,159.50
2022-12-23T04:56:59.466Z,554.90
2022-12-23T04:57:59.457Z,476.90
2022-12-23T04:58:59.444Z,241.10
2022-12-23T04:59:59.442Z,208.70
2022-12-23T05:00:59.442Z,212.90
2022-12-23T05:01:59.639Z,210.10
2022-12-23T05:02:59.603Z,191.60
2022-12-23T05:03:59.399Z,228.60
2022-12-23T05:04:59.397Z,364.20
2022-12-23T05:05:59.376Z,341.70
2022-12-23T05:06:59.369Z,237.40
2022-12-23T05:07:59.431Z,215.90
2022-12-23T05:08:59.360Z,209.60
2022-12-23T05:09:59.336Z,179.70
2022-12-23T05:10:59.328Z,147.00
2022-12-23T05:11:59.330Z,189.60
2022-12-23T05:12:59.312Z,223.60
2022-12-23T05:13:59.295Z,203.00
2022-12-23T05:14:59.293Z,216.10
2022-12-23T05:15:59.317Z,196.30
2022-12-23T05:17:03.740Z,224.90
2022-12-23T05:17:59.256Z,165.10
2022-12-23T05:18:59.245Z,133.80
2022-12-23T05:19:59.233Z,164.30
2022-12-23T05:20:59.228Z,137.50
2022-12-23T05:21:59.216Z,187.40
2022-12-23T05:22:59.208Z,185.00
2022-12-23T05:23:59.196Z,155.40
2022-12-23T05:24:59.195Z,150.20
2022-12-23T05:25:59.180Z,154.20
2022-12-23T05:27:00.451Z,154.60
2022-12-23T05:27:59.160Z,174.30
2022-12-23T05:28:59.170Z,228.50
2022-12-23T05:29:59.144Z,476.80
2022-12-23T05:30:59.183Z,437.00
2022-12-23T05:31:59.156Z,208.40
2022-12-23T05:32:59.157Z,363.00
2022-12-23T05:34:05.676Z,334.30
2022-12-23T05:34:59.134Z,338.00
2022-12-23T05:35:59.084Z,397.50
2022-12-23T05:36:59.069Z,603.70
2022-12-23T05:37:59.064Z,325.10
2022-12-23T05:38:59.062Z,220.80
2022-12-23T05:39:59.052Z,255.20
2022-12-23T05:40:59.028Z,269.00
2022-12-23T05:41:59.050Z,193.30
2022-12-23T05:42:59.005Z,184.00
2022-12-23T05:43:59.013Z,197.90
2022-12-23T05:44:58.988Z,234.80
2022-12-23T05:45:59.054Z,232.10
2022-12-23T05:46:58.969Z,311.50
2022-12-23T05:47:58.972Z,243.50
2022-12-23T05:48:58.966Z,192.90
2022-12-23T05:49:58.936Z,169.00
2022-12-23T05:50:58.934Z,264.40
2022-12-23T05:51:58.923Z,180.20
2022-12-23T05:52:58.914Z,176.90
2022-12-23T05:53:58.900Z,175.30
2022-12-23T05:54:58.889Z,243.60
2022-12-23T05:55:58.900Z,547.30
2022-12-23T05:56:58.879Z,301.40
2022-12-23T05:57:58.864Z,451.00
2022-12-23T05:58:58.854Z,645.30
2022-12-23T05:59:58.857Z,865.80
2022-12-23T06:00:58.834Z,389.20
2022-12-23T06:01:59.057Z,256.50
2022-12-23T06:02:58.977Z,320.60
2022-12-23T06:03:58.901Z,214.60
2022-12-23T06:04:58.793Z,199.10
2022-12-23T06:05:58.783Z,258.00
2022-12-23T06:06:58.771Z,243.10
2022-12-23T06:07:58.763Z,207.20
2022-12-23T06:09:00.174Z,241.00
2022-12-23T06:09:58.755Z,243.60
2022-12-23T06:10:58.731Z,181.30
2022-12-23T06:11:58.728Z,176.90
2022-12-23T06:12:58.886Z,167.30
2022-12-23T06:13:58.702Z,170.20
2022-12-23T06:14:58.688Z,160.60
2022-12-23T06:15:58.686Z,164.90
2022-12-23T06:16:58.808Z,176.10
2022-12-23T06:17:58.663Z,169.80
2022-12-23T06:18:58.660Z,162.90
2022-12-23T06:19:58.646Z,151.60
2022-12-23T06:20:58.634Z,158.50
2022-12-23T06:21:58.633Z,143.80
2022-12-23T06:22:58.617Z,162.60
2022-12-23T06:23:58.612Z,183.40
2022-12-23T06:24:58.597Z,188.00
2022-12-23T06:25:58.584Z,155.90
2022-12-23T06:26:58.578Z,161.80
2022-12-23T06:27:58.571Z,178.70
2022-12-23T06:28:58.589Z,153.10
2022-12-23T06:29:58.545Z,149.40
2022-12-23T06:30:58.544Z,195.90
2022-12-23T06:31:58.589Z,199.00
2022-12-23T06:32:58.536Z,197.00
2022-12-23T06:33:58.525Z,185.20
2022-12-23T06:34:58.519Z,175.20
2022-12-23T06:35:58.488Z,179.10
2022-12-23T06:36:58.478Z,151.20
2022-12-23T06:37:58.487Z,147.40
2022-12-23T06:38:58.458Z,129.50
2022-12-23T06:39:58.454Z,151.30
2022-12-23T06:40:58.440Z,211.30
2022-12-23T06:41:58.430Z,212.30
2022-12-23T06:42:58.421Z,168.50
2022-12-23T06:43:58.715Z,143.00
2022-12-23T06:44:58.461Z,166.80
2022-12-23T06:45:58.465Z,131.80
2022-12-23T06:46:58.378Z,135.20
2022-12-23T06:47:58.372Z,146.20
2022-12-23T06:48:58.377Z,143.90
2022-12-23T06:49:58.370Z,145.20
2022-12-23T06:50:58.339Z,134.20
2022-12-23T06:51:58.337Z,117.20
2022-12-23T06:52:58.321Z,151.20
2022-12-23T06:53:58.313Z,125.40
2022-12-23T06:54:58.313Z,128.30
2022-12-23T06:55:58.294Z,126.10
2022-12-23T06:56:58.285Z,118.50
2022-12-23T06:57:58.286Z,134.20
2022-12-23T06:58:58.264Z,125.00
2022-12-23T06:59:58.271Z,114.30
2022-12-23T07:00:58.301Z,161.80
2022-12-23T07:01:58.489Z,117.00
2022-12-23T07:02:58.360Z,168.60
2022-12-23T07:03:58.222Z,220.60
2022-12-23T07:04:58.211Z,241.90
2022-12-23T07:05:58.194Z,139.70
2022-12-23T07:06:58.187Z,174.10
2022-12-23T07:07:58.183Z,171.40
2022-12-23T07:08:58.165Z,153.30
2022-12-23T07:09:58.157Z,232.80
2022-12-23T07:10:58.144Z,167.60
2022-12-23T07:11:58.141Z,191.70
2022-12-23T07:12:58.129Z,156.60
2022-12-23T07:13:58.113Z,153.30
2022-12-23T07:14:58.108Z,191.00
2022-12-23T07:15:58.111Z,210.20
2022-12-23T07:16:58.216Z,222.10
2022-12-23T07:17:58.073Z,205.60
2022-12-23T07:18:58.058Z,198.60
2022-12-23T07:19:58.051Z,164.00
2022-12-23T07:20:58.043Z,173.00
2022-12-23T07:21:58.043Z,194.80
2022-12-23T07:22:58.022Z,195.90
2022-12-23T07:23:58.057Z,230.10
2022-12-23T07:24:58.021Z,203.80
2022-12-23T07:25:58.003Z,177.70
2022-12-23T07:26:57.982Z,217.70
2022-12-23T07:27:57.983Z,220.30
2022-12-23T07:28:57.986Z,184.70
2022-12-23T07:29:57.956Z,200.80
2022-12-23T07:30:58.015Z,180.20
2022-12-23T07:31:58.026Z,179.70
2022-12-23T07:32:57.923Z,172.00
2022-12-23T07:33:57.919Z,203.90
2022-12-23T07:34:57.905Z,202.90
2022-12-23T07:35:57.894Z,200.70
2022-12-23T07:36:57.888Z,190.90
2022-12-23T07:37:57.877Z,253.90
2022-12-23T07:38:57.867Z,190.10
2022-12-23T07:39:57.979Z,197.90
2022-12-23T07:40:57.844Z,197.70
2022-12-23T07:42:43.366Z,193.10
2022-12-23T07:42:57.822Z,194.50
2022-12-23T07:43:57.822Z,193.30
2022-12-23T07:44:57.805Z,202.40
2022-12-23T07:46:00.713Z,191.00
2022-12-23T07:46:57.783Z,206.30
2022-12-23T07:47:57.771Z,219.40
2022-12-23T07:48:57.771Z,217.60
2022-12-23T07:49:57.756Z,199.40
2022-12-23T07:50:57.742Z,204.40
2022-12-23T07:51:57.734Z,258.30
2022-12-23T07:52:57.724Z,328.20
2022-12-23T07:53:57.723Z,292.00
2022-12-23T07:54:57.702Z,245.80
2022-12-23T07:55:57.692Z,204.40
2022-12-23T07:56:57.682Z,224.90
2022-12-23T07:57:57.674Z,211.70
2022-12-23T07:58:57.664Z,207.00
2022-12-23T07:59:58.019Z,244.90
2022-12-23T08:00:57.737Z,213.00
2022-12-23T08:01:57.850Z,241.90
2022-12-23T08:02:57.696Z,219.50
2022-12-23T08:03:57.652Z,223.20
2022-12-23T08:04:57.648Z,216.50
2022-12-23T08:05:57.593Z,225.80
2022-12-23T08:06:57.588Z,198.00
2022-12-23T08:07:57.574Z,226.80
2022-12-23T08:08:57.569Z,224.50
2022-12-23T08:09:57.552Z,325.10
2022-12-23T08:10:57.546Z,250.60
2022-12-23T08:11:57.561Z,241.00
2022-12-23T08:12:57.532Z,267.00
2022-12-23T08:13:57.511Z,200.90
2022-12-23T08:14:57.512Z,206.40
2022-12-23T08:15:57.494Z,207.20
2022-12-23T08:16:57.549Z,258.90
2022-12-23T08:17:57.484Z,263.40
2022-12-23T08:18:57.463Z,253.40
2022-12-23T08:19:57.450Z,396.50
2022-12-23T08:20:57.451Z,286.60
2022-12-23T08:21:57.435Z,366.40
2022-12-23T08:22:57.429Z,297.00
2022-12-23T08:23:57.413Z,517.20
2022-12-23T08:24:57.403Z,459.90
2022-12-23T08:25:57.396Z,302.70
2022-12-23T08:26:57.386Z,551.00
2022-12-23T08:27:57.376Z,382.60
2022-12-23T08:28:57.365Z,433.90
2022-12-23T08:29:57.368Z,475.10
2022-12-23T08:30:57.407Z,428.00
2022-12-23T08:31:57.334Z,380.30
2022-12-23T08:32:57.324Z,504.60
2022-12-23T08:33:57.325Z,400.70
2022-12-23T08:34:57.326Z,493.60
2022-12-23T08:35:57.297Z,550.70
2022-12-23T08:36:57.285Z,501.60
2022-12-23T08:37:57.276Z,571.00
2022-12-23T08:38:57.281Z,590.10
2022-12-23T08:39:57.261Z,513.40
2022-12-23T08:40:57.252Z,492.70
2022-12-23T08:41:57.239Z,583.50
2022-12-23T08:42:57.233Z,386.80
2022-12-23T08:43:57.221Z,583.20
2022-12-23T08:44:57.218Z,561.50
2022-12-23T08:45:57.259Z,420.60
2022-12-23T08:46:57.192Z,433.10
2022-12-23T08:47:57.180Z,638.00
2022-12-23T08:48:57.175Z,401.50
2022-12-23T08:49:57.166Z,701.60
2022-12-23T08:50:57.150Z,543.10
2022-12-23T08:51:57.141Z,439.10
2022-12-23T08:52:57.138Z,530.30
2022-12-23T08:54:00.666Z,413.80
2022-12-23T08:54:57.124Z,411.10
2022-12-23T08:55:57.103Z,617.00
2022-12-23T08:56:57.095Z,461.10
2022-12-23T08:57:57.084Z,430.30
2022-12-23T08:58:57.095Z,418.90
2022-12-23T08:59:57.070Z,327.60
2022-12-23T09:00:57.055Z,476.10
2022-12-23T09:01:57.190Z,568.20
2022-12-23T09:02:57.141Z,346.50
2022-12-23T09:03:57.091Z,490.60
2022-12-23T09:04:57.017Z,425.90
2022-12-23T09:05:57.013Z,385.90
2022-12-23T09:06:56.995Z,397.00
2022-12-23T09:07:56.992Z,349.30
2022-12-23T09:08:56.982Z,309.90
2022-12-23T09:09:56.977Z,279.20
2022-12-23T09:10:56.959Z,229.10
2022-12-23T09:11:56.956Z,183.40
2022-12-23T09:12:58.167Z,185.30
2022-12-23T09:13:56.940Z,176.50
2022-12-23T09:14:56.924Z,184.40
2022-12-23T09:15:56.952Z,234.60
2022-12-23T09:16:56.903Z,180.90
2022-12-23T09:17:56.895Z,169.10
2022-12-23T09:18:56.891Z,201.80
2022-12-23T09:19:56.875Z,169.30
2022-12-23T09:20:56.879Z,159.70
2022-12-23T09:21:57.080Z,177.60
2022-12-23T09:22:56.868Z,217.20
2022-12-23T09:23:56.844Z,187.40
2022-12-23T09:25:03.100Z,226.30
2022-12-23T09:25:56.814Z,240.40
2022-12-23T09:26:56.804Z,265.80
2022-12-23T09:27:56.816Z,188.20
2022-12-23T09:28:56.785Z,269.40
2022-12-23T09:29:56.778Z,228.10
2022-12-23T09:30:56.819Z,298.00
2022-12-23T09:31:56.833Z,321.90
2022-12-23T09:32:56.747Z,292.40
2022-12-23T09:33:56.737Z,271.20
2022-12-23T09:34:56.727Z,343.70
2022-12-23T09:35:56.719Z,324.80
2022-12-23T09:36:56.706Z,324.80
2022-12-23T09:37:56.691Z,458.10
2022-12-23T09:38:56.687Z,369.20
2022-12-23T09:39:56.692Z,446.70
2022-12-23T09:40:57.343Z,439.60
2022-12-23T09:41:56.658Z,347.60
2022-12-23T09:42:56.657Z,431.80
2022-12-23T09:43:56.647Z,436.30
2022-12-23T09:44:56.628Z,331.00
2022-12-23T09:45:56.676Z,216.80
2022-12-23T09:46:56.643Z,339.60
2022-12-23T09:47:56.602Z,435.60
2022-12-23T09:48:56.599Z,314.10
2022-12-23T09:49:56.582Z,388.30
2022-12-23T09:50:56.585Z,401.90
2022-12-23T09:51:56.558Z,345.40
2022-12-23T09:52:56.553Z,179.20
2022-12-23T09:53:56.538Z,291.60
2022-12-23T09:54:56.547Z,252.60
2022-12-23T09:55:56.523Z,248.10
2022-12-23T09:56:56.512Z,165.60
2022-12-23T09:57:56.633Z,288.50
2022-12-23T09:58:56.489Z,293.70
2022-12-23T09:59:56.504Z,192.50
2022-12-23T10:00:56.469Z,224.20
2022-12-23T10:01:56.624Z,124.40
2022-12-23T10:02:56.863Z,138.10
2022-12-23T10:03:56.515Z,116.50
2022-12-23T10:04:56.443Z,150.60
2022-12-23T10:05:56.464Z,156.10
2022-12-23T10:07:02.513Z,158.60
2022-12-23T10:07:56.395Z,147.10
2022-12-23T10:08:56.392Z,130.30
2022-12-23T10:09:56.390Z,154.10
2022-12-23T10:10:56.372Z,136.10
2022-12-23T10:11:56.376Z,102.40
2022-12-23T10:12:56.355Z,102.80
2022-12-23T10:13:56.467Z,92.00
2022-12-23T10:14:56.339Z,86.50
2022-12-23T10:15:56.397Z,84.20
2022-12-23T10:16:56.311Z,86.80
2022-12-23T10:17:56.308Z,87.80
2022-12-23T10:18:56.300Z,74.60
2022-12-23T10:19:56.283Z,73.60
2022-12-23T10:20:56.273Z,77.20
2022-12-23T10:21:56.266Z,67.20
2022-12-23T10:22:56.256Z,69.10
2022-12-23T10:23:56.247Z,76.80
2022-12-23T10:24:56.238Z,87.20
2022-12-23T10:25:56.233Z,82.90
2022-12-23T10:26:56.216Z,81.40
2022-12-23T10:27:56.243Z,73.30
2022-12-23T10:28:56.203Z,73.20
2022-12-23T10:29:56.188Z,67.60
2022-12-23T10:31:23.933Z,75.60
2022-12-23T10:31:56.239Z,74.30
2022-12-23T10:32:56.160Z,67.40
2022-12-23T10:33:56.149Z,75.50
2022-12-23T10:34:56.142Z,80.20
2022-12-23T10:35:56.154Z,74.80
2022-12-23T10:36:56.161Z,62.30
2022-12-23T10:37:56.113Z,55.60
2022-12-23T10:38:56.102Z,55.20
2022-12-23T10:39:56.094Z,59.40
2022-12-23T10:40:56.096Z,57.90
2022-12-23T10:41:56.097Z,52.70
2022-12-23T10:42:56.065Z,47.90
2022-12-23T10:43:56.058Z,45.50
2022-12-23T10:44:56.157Z,47.80
2022-12-23T10:45:56.039Z,51.60
2022-12-23T10:46:56.073Z,45.80
2022-12-23T10:47:56.020Z,49.00
2022-12-23T10:48:56.014Z,47.90
2022-12-23T10:49:56.015Z,50.60
2022-12-23T10:50:56.004Z,47.80
2022-12-23T10:51:55.983Z,45.00
2022-12-23T10:52:55.977Z,45.80
2022-12-23T10:53:55.970Z,51.20
2022-12-23T10:54:55.963Z,53.40
2022-12-23T10:55:55.946Z,55.00
2022-12-23T10:56:55.934Z,45.70
2022-12-23T10:57:56.006Z,47.50
2022-12-23T10:58:55.918Z,46.50
2022-12-23T10:59:55.905Z,51.50
2022-12-23T11:00:55.957Z,43.50
2022-12-23T11:01:56.095Z,46.90
2022-12-23T11:02:56.021Z,48.90
2022-12-23T11:03:55.978Z,48.70
2022-12-23T11:04:55.864Z,49.60
2022-12-23T11:05:55.858Z,47.10
2022-12-23T11:07:18.233Z,47.70
2022-12-23T11:07:55.833Z,47.50
2022-12-23T11:08:55.823Z,45.80
2022-12-23T11:09:55.826Z,45.60
2022-12-23T11:10:55.806Z,49.20
2022-12-23T11:11:55.817Z,51.60
2022-12-23T11:12:55.790Z,49.10
2022-12-23T11:13:55.777Z,45.80
2022-12-23T11:14:55.772Z,44.00
2022-12-23T11:15:55.782Z,45.00
2022-12-23T11:16:55.800Z,44.80
2022-12-23T11:17:55.754Z,51.10
2022-12-23T11:18:55.729Z,45.40
2022-12-23T11:19:55.721Z,51.30
2022-12-23T11:20:55.707Z,52.90
2022-12-23T11:21:55.698Z,56.00
2022-12-23T11:22:55.693Z,51.60
2022-12-23T11:23:55.684Z,53.70
2022-12-23T11:24:55.733Z,48.10
2022-12-23T11:25:55.666Z,45.60
2022-12-23T11:26:55.656Z,49.50
2022-12-23T11:27:55.643Z,47.60
2022-12-23T11:28:55.650Z,46.30
2022-12-23T11:29:55.637Z,47.90
2022-12-23T11:30:56.899Z,45.80
2022-12-23T11:31:55.667Z,47.20
2022-12-23T11:32:55.601Z,48.70
2022-12-23T11:33:55.595Z,46.60
2022-12-23T11:34:55.637Z,51.40
2022-12-23T11:35:55.565Z,48.80
2022-12-23T11:36:58.733Z,52.00
2022-12-23T11:37:55.549Z,54.00
2022-12-23T11:38:55.538Z,59.30
2022-12-23T11:39:55.525Z,59.40
2022-12-23T11:40:55.519Z,59.60
2022-12-23T11:41:55.510Z,60.20
2022-12-23T11:42:55.522Z,51.30
2022-12-23T11:43:55.492Z,49.40
2022-12-23T11:44:55.485Z,48.10
2022-12-23T11:45:55.543Z,47.00
2022-12-23T11:46:55.461Z,46.20
2022-12-23T11:47:55.450Z,44.60
2022-12-23T11:48:55.525Z,47.10
2022-12-23T11:49:55.437Z,44.20
2022-12-23T11:50:55.424Z,43.50
2022-12-23T11:51:56.382Z,48.30
2022-12-23T11:52:55.402Z,44.60
2022-12-23T11:53:55.403Z,43.10
2022-12-23T11:54:55.390Z,47.10
2022-12-23T11:55:55.374Z,45.50
2022-12-23T11:56:55.433Z,46.60
2022-12-23T11:57:55.354Z,49.80
2022-12-23T11:58:55.350Z,49.80
2022-12-23T11:59:55.338Z,54.70
2022-12-23T12:00:56.241Z,55.40
2022-12-23T12:01:55.357Z,59.10
2022-12-23T12:02:55.420Z,56.00
2022-12-23T12:03:55.383Z,58.60
2022-12-23T12:04:55.310Z,56.20
2022-12-23T12:05:55.279Z,56.30
2022-12-23T12:06:56.817Z,58.90
2022-12-23T12:07:55.259Z,58.20
2022-12-23T12:08:55.256Z,55.20
2022-12-23T12:09:55.238Z,55.40
2022-12-23T12:10:55.235Z,56.50
2022-12-23T12:11:55.221Z,55.80
2022-12-23T12:12:55.238Z,51.10
2022-12-23T12:13:55.204Z,51.80
2022-12-23T12:14:55.197Z,52.70
2022-12-23T12:15:55.185Z,53.10
2022-12-23T12:16:55.241Z,57.60
2022-12-23T12:17:55.167Z,57.60
2022-12-23T12:18:55.912Z,55.50
2022-12-23T12:19:55.149Z,50.50
2022-12-23T12:20:55.141Z,51.70
2022-12-23T12:21:55.131Z,51.90
2022-12-23T12:22:55.120Z,50.70
2022-12-23T12:24:14.730Z,53.10
2022-12-23T12:24:55.103Z,55.50
2022-12-23T12:25:55.098Z,44.80
2022-12-23T12:26:55.084Z,49.80
2022-12-23T12:27:55.073Z,50.50
2022-12-23T12:28:55.352Z,48.00
2022-12-23T12:29:55.058Z,50.00
2022-12-23T12:30:55.088Z,41.70
2022-12-23T12:31:55.045Z,42.40
2022-12-23T12:32:55.026Z,42.30
2022-12-23T12:33:55.015Z,44.10
2022-12-23T12:34:55.039Z,40.80
2022-12-23T12:35:58.917Z,41.50
2022-12-23T12:36:55.124Z,46.50
2022-12-23T12:37:54.977Z,39.70
2022-12-23T12:38:54.973Z,32.60
2022-12-23T12:39:54.968Z,34.00